»·PEaware :: UAL200 PGUM-PHNL

UAL200 :: PGUM-PHNL

FLIGHT INFORMATION

Flight Status: Arrived
Operator:
United Airlines
More flights by this operator :: More flights under this callsign
Pilot: Thomas C. (28508)
Aircraft: BOEING 777-200
(B772)
More flights by this aircraft type
Origin: PGUM Guam Intl
Guam
Destination: PHNL Honolulu Intl
United States
More flights between these airports :: More routes between these airports
Route: UNZ A450 JIMOS/N0478F410 A450 BRIUN NONNI BOOKE BOOKE8
File this flight plan on PilotEdge
Remarks: PBN / A1B1C1D1L1O1S2 NAV / RNVD1E2A1 DOF / 200412 REG / N774UA EET / PHZH0553 SEL / QREJ OPR / UAL PER / D RALT / PGSN PKMJ PMDY RMK / TCAS
Altitude:
(Current/Filed)
39,000ft
Speed:
(Current/Filed)
485kts
Departed: 11-Apr-20 07:56 PM
Arrived: 12-Apr-20 02:21 AM
Distance/Time
Traveled:
3297nm/6:25
Distance/Time
To Go:
Arrived

Flight Plot

Page will automatically refresh every two minutes.


Map Options




Map Legend


Flown Route
Filed Route
Departure Airport
Arrival Airport
Navaid (VOR, NDB)
Fix

Horizontal Profiles

Position Reports

Time Latitude Longitude Heading Altitude Ground
Speed
11-Apr-20 19:24 13.491680 144.805917 331 314ft 0kts
11-Apr-20 19:25 13.491680 144.805917 331 314ft 0kts
11-Apr-20 19:26 13.491680 144.805917 331 314ft 0kts
11-Apr-20 19:27 13.491680 144.805917 331 314ft 0kts
11-Apr-20 19:28 13.491680 144.805917 331 314ft 0kts
11-Apr-20 19:29 13.491680 144.805917 331 314ft 0kts
11-Apr-20 19:30 13.491680 144.805917 331 314ft 0kts
11-Apr-20 19:31 13.491680 144.805917 331 314ft 0kts
11-Apr-20 19:32 13.491680 144.805917 331 314ft 0kts
11-Apr-20 19:33 13.491680 144.805917 331 314ft 0kts
11-Apr-20 19:34 13.491680 144.805917 331 314ft 0kts
11-Apr-20 19:35 13.491680 144.805917 331 314ft 0kts
11-Apr-20 19:36 13.491680 144.805917 331 314ft 0kts
11-Apr-20 19:37 13.491680 144.805917 331 314ft 0kts
11-Apr-20 19:38 13.491680 144.805917 331 314ft 0kts
11-Apr-20 19:39 13.491680 144.805917 331 314ft 0kts
11-Apr-20 19:40 13.491680 144.805917 331 314ft 0kts
11-Apr-20 19:41 13.491680 144.805917 331 314ft 0kts
11-Apr-20 19:42 13.491680 144.805917 331 314ft 0kts
11-Apr-20 19:43 13.491680 144.805917 331 314ft 0kts
11-Apr-20 19:44 13.491680 144.805917 331 314ft 0kts
11-Apr-20 19:45 13.491680 144.805917 331 314ft 0kts
11-Apr-20 19:46 13.491326 144.806115 332 314ft 2kts
11-Apr-20 19:47 13.491117 144.806490 243 314ft 1kts
11-Apr-20 19:48 13.491140 144.806537 242 314ft 0kts
11-Apr-20 19:49 13.490714 144.805678 241 314ft 12kts
11-Apr-20 19:50 13.488381 144.802143 244 314ft 17kts
11-Apr-20 19:51 13.486089 144.797143 244 314ft 21kts
11-Apr-20 19:53 13.483291 144.791014 244 314ft 25kts
11-Apr-20 19:54 13.480039 144.783868 244 314ft 29kts
11-Apr-20 19:55 13.478086 144.782154 70 314ft 11kts
11-Apr-20 19:56 13.489990 144.807731 65 1055ft 175kts
11-Apr-20 19:57 13.509121 144.871225 72 3912ft 262kts
11-Apr-20 19:58 13.534003 144.945258 71 8137ft 283kts
11-Apr-20 19:59 13.563293 145.029738 70 10946ft 346kts
11-Apr-20 20:00 13.600408 145.138456 71 14187ft 403kts
11-Apr-20 20:01 13.638719 145.250540 71 17909ft 425kts
11-Apr-20 20:02 13.679833 145.368658 70 21219ft 445kts
11-Apr-20 20:03 13.723160 145.491440 69 24237ft 461kts
11-Apr-20 20:04 13.768220 145.619438 69 26816ft 480kts
11-Apr-20 20:05 13.814506 145.751157 69 29078ft 497kts
11-Apr-20 20:06 13.862069 145.886705 69 31058ft 513kts
11-Apr-20 20:07 13.910288 146.024376 69 33911ft 508kts
11-Apr-20 20:08 13.957725 146.160292 70 36467ft 502kts
11-Apr-20 20:09 14.004917 146.295671 69 38303ft 504kts
11-Apr-20 20:10 14.052015 146.431011 69 38945ft 502kts
11-Apr-20 20:10 14.091308 146.544119 69 38942ft 503kts
11-Apr-20 20:11 14.138357 146.679785 70 38938ft 503kts
11-Apr-20 20:13 14.193116 146.838089 70 38939ft 503kts
11-Apr-20 20:14 14.239886 146.973659 70 38940ft 503kts
11-Apr-20 20:14 14.278878 147.086896 70 38940ft 504kts
11-Apr-20 20:15 14.325687 147.223094 70 38941ft 504kts
11-Apr-20 20:16 14.372306 147.359023 70 38941ft 504kts
11-Apr-20 20:18 14.426751 147.518128 70 38942ft 504kts
11-Apr-20 20:18 14.465436 147.631424 70 38943ft 504kts
11-Apr-20 20:19 14.507894 147.769233 72 38939ft 505kts
11-Apr-20 20:20 14.550210 147.907731 72 38939ft 505kts
11-Apr-20 20:21 14.592237 148.045603 72 38940ft 505kts
11-Apr-20 20:22 14.634387 148.184201 72 38941ft 505kts
11-Apr-20 20:23 14.676386 148.322622 72 38941ft 506kts
11-Apr-20 20:24 14.718213 148.460803 72 38942ft 506kts
11-Apr-20 20:25 14.760153 148.599681 72 38943ft 506kts
11-Apr-20 20:26 14.801861 148.738106 72 38939ft 506kts
11-Apr-20 20:27 14.843648 148.877131 72 38939ft 507kts
11-Apr-20 20:28 14.884537 149.016734 74 38940ft 507kts
11-Apr-20 20:29 14.922535 149.156878 73 38941ft 507kts
11-Apr-20 20:30 14.960419 149.296936 73 38942ft 508kts
11-Apr-20 20:31 14.998422 149.437797 73 38942ft 508kts
11-Apr-20 20:32 15.036229 149.578304 73 38943ft 508kts
11-Apr-20 20:33 15.073971 149.718918 74 38939ft 508kts
11-Apr-20 20:34 15.111699 149.859872 74 38939ft 509kts
11-Apr-20 20:35 15.149335 150.000862 74 38940ft 509kts
11-Apr-20 20:36 15.186983 150.142258 74 38940ft 509kts
11-Apr-20 20:37 15.224425 150.283273 74 38941ft 509kts
11-Apr-20 20:38 15.261934 150.424922 74 38942ft 510kts
11-Apr-20 20:39 15.299273 150.566319 74 38943ft 510kts
11-Apr-20 20:40 15.336562 150.707915 74 38938ft 510kts
11-Apr-20 20:41 15.373731 150.849447 74 38939ft 510kts
11-Apr-20 20:42 15.410981 150.991677 74 38940ft 510kts
11-Apr-20 20:43 15.447921 151.133115 74 38941ft 511kts
11-Apr-20 20:44 15.484919 151.275175 74 38941ft 511kts
11-Apr-20 20:45 15.521902 151.417575 74 38942ft 511kts
11-Apr-20 20:46 15.558791 151.560016 74 38943ft 511kts
11-Apr-20 20:47 15.595130 151.700721 75 38938ft 511kts
11-Apr-20 20:48 15.631950 151.843705 75 38939ft 512kts
11-Apr-20 20:49 15.668466 151.985916 75 38940ft 512kts
11-Apr-20 20:50 15.704958 152.128442 75 38941ft 512kts
11-Apr-20 20:51 15.741482 152.271508 75 38942ft 512kts
11-Apr-20 20:52 15.777826 152.414285 75 38943ft 513kts
11-Apr-20 20:53 15.814069 152.557083 75 38944ft 513kts
11-Apr-20 20:54 15.850327 152.700344 75 38938ft 513kts
11-Apr-20 20:55 15.886402 152.843317 75 38940ft 513kts
11-Apr-20 20:56 15.922366 152.986273 75 38941ft 513kts
11-Apr-20 20:57 15.958375 153.129841 75 38942ft 514kts
11-Apr-20 20:58 15.994297 153.273493 75 38943ft 514kts
11-Apr-20 20:59 16.030097 153.417088 75 38944ft 514kts
11-Apr-20 21:00 16.065785 153.560673 75 38945ft 514kts
11-Apr-20 21:01 16.101402 153.704377 76 38939ft 514kts
11-Apr-20 21:02 16.137021 153.848568 76 38938ft 515kts
11-Apr-20 21:03 16.172488 153.992566 76 38939ft 515kts
11-Apr-20 21:04 16.207912 154.136840 76 38940ft 515kts
11-Apr-20 21:05 16.243300 154.281420 76 38941ft 515kts
11-Apr-20 21:06 16.278519 154.425756 76 38915ft 515kts
11-Apr-20 21:07 16.313687 154.570343 76 38916ft 516kts
11-Apr-20 21:08 16.348772 154.715045 76 38910ft 516kts
11-Apr-20 21:09 16.383714 154.859618 76 38911ft 516kts
11-Apr-20 21:10 16.418651 155.004627 76 38912ft 516kts
11-Apr-20 21:11 16.453490 155.149713 76 38914ft 517kts
11-Apr-20 21:12 16.488265 155.294985 76 38915ft 517kts
11-Apr-20 21:13 16.523034 155.440704 76 38916ft 518kts
11-Apr-20 21:14 16.557578 155.585956 76 38917ft 518kts
11-Apr-20 21:15 16.592150 155.731794 76 38911ft 519kts
11-Apr-20 21:16 16.626705 155.878051 76 38912ft 519kts
11-Apr-20 21:17 16.661144 156.024301 76 38903ft 520kts
11-Apr-20 21:18 16.695410 156.170309 76 38888ft 520kts
11-Apr-20 21:19 16.729734 156.317050 76 38889ft 521kts
11-Apr-20 21:20 16.763830 156.463305 76 39031ft 521kts
11-Apr-20 21:21 16.798056 156.610635 76 39027ft 522kts
11-Apr-20 21:22 16.832129 156.757784 77 39020ft 522kts
11-Apr-20 21:23 16.866086 156.904951 76 39021ft 523kts
11-Apr-20 21:24 16.899969 157.052309 76 39023ft 523kts
11-Apr-20 21:25 16.933847 157.200158 76 39024ft 524kts
11-Apr-20 21:26 16.967590 157.347938 76 39025ft 524kts
11-Apr-20 21:27 17.001287 157.496037 76 39027ft 524kts
11-Apr-20 21:28 17.034891 157.644254 76 39028ft 525kts
11-Apr-20 21:29 17.068505 157.793019 77 39021ft 525kts
11-Apr-20 21:30 17.101947 157.941617 77 39021ft 526kts
11-Apr-20 21:31 17.135197 158.089893 77 39021ft 526kts
11-Apr-20 21:32 17.168427 158.238611 77 39022ft 527kts
11-Apr-20 21:33 17.201672 158.387942 77 39024ft 527kts
11-Apr-20 21:34 17.234871 158.537613 76 39025ft 527kts
11-Apr-20 21:35 17.267923 158.687138 77 39015ft 526kts
11-Apr-20 21:36 17.300700 158.836053 77 39019ft 527kts
11-Apr-20 21:37 17.333447 158.985342 77 39020ft 528kts
11-Apr-20 21:38 17.366119 159.134843 77 39022ft 528kts
11-Apr-20 21:39 17.398743 159.284695 77 39023ft 529kts
11-Apr-20 21:40 17.431249 159.434567 77 39025ft 529kts
11-Apr-20 21:41 17.463689 159.584708 77 39027ft 529kts
11-Apr-20 21:42 17.496064 159.735122 77 39018ft 530kts
11-Apr-20 21:43 17.528321 159.885572 77 39020ft 530kts
11-Apr-20 21:44 17.560482 160.036159 77 39021ft 531kts
11-Apr-20 21:45 17.592620 160.187230 77 39023ft 531kts
11-Apr-20 21:46 17.624657 160.338416 77 39025ft 531kts
11-Apr-20 21:47 17.656525 160.489397 77 39026ft 531kts
11-Apr-20 21:48 17.688177 160.639958 77 39028ft 531kts
11-Apr-20 21:49 17.719888 160.791382 77 39019ft 531kts
11-Apr-20 21:50 17.751455 160.942740 77 39021ft 531kts
11-Apr-20 21:51 17.782813 161.093704 77 39023ft 531kts
11-Apr-20 21:52 17.814123 161.245051 77 39024ft 531kts
11-Apr-20 21:53 17.845370 161.396709 77 39026ft 532kts
11-Apr-20 21:54 17.876435 161.548109 77 39028ft 532kts
11-Apr-20 21:55 17.907110 161.698185 77 39017ft 532kts
11-Apr-20 21:56 17.937935 161.849658 77 39020ft 532kts
11-Apr-20 21:57 17.968760 162.001760 77 39022ft 532kts
11-Apr-20 21:58 17.999351 162.153339 77 39024ft 532kts
11-Apr-20 21:59 18.029941 162.305558 77 39025ft 532kts
11-Apr-20 22:00 18.060321 162.457372 77 39027ft 533kts
11-Apr-20 22:01 18.090632 162.609490 77 39029ft 533kts
11-Apr-20 22:02 18.120871 162.761874 78 39017ft 533kts
11-Apr-20 22:03 18.151010 162.914424 78 39019ft 533kts
11-Apr-20 22:04 18.180953 163.066642 78 39021ft 533kts
11-Apr-20 22:05 18.210871 163.219400 78 39023ft 533kts
11-Apr-20 22:06 18.240695 163.372344 78 39025ft 534kts
11-Apr-20 22:08 18.270284 163.524762 77 39026ft 534kts
11-Apr-20 22:09 18.299871 163.677828 78 39017ft 534kts
11-Apr-20 22:10 18.329256 163.830573 78 39019ft 534kts
11-Apr-20 22:11 18.358605 163.983789 78 39020ft 534kts
11-Apr-20 22:12 18.387798 164.136886 78 39096ft 533kts
11-Apr-20 22:13 18.416843 164.289909 78 40109ft 533kts
11-Apr-20 22:14 18.445673 164.442479 78 41031ft 532kts
11-Apr-20 22:15 18.474572 164.596113 78 41027ft 535kts
11-Apr-20 22:16 18.503309 164.749601 78 41018ft 535kts
11-Apr-20 22:17 18.532001 164.903569 78 41020ft 535kts
11-Apr-20 22:18 18.560539 165.057427 78 41022ft 535kts
11-Apr-20 22:19 18.588914 165.211127 78 41023ft 536kts
11-Apr-20 22:20 18.617143 165.364761 78 41025ft 536kts
11-Apr-20 22:21 18.645344 165.518980 78 41027ft 536kts
11-Apr-20 22:22 18.673375 165.672993 78 41019ft 536kts
11-Apr-20 22:23 18.701338 165.827389 78 41019ft 536kts
11-Apr-20 22:24 18.729174 165.981838 78 41021ft 536kts
11-Apr-20 22:25 18.756849 166.136140 78 41023ft 536kts
11-Apr-20 22:26 18.784406 166.290541 78 41025ft 536kts
11-Apr-20 22:27 18.811819 166.444895 78 41027ft 536kts
11-Apr-20 22:27 18.834688 166.574255 78 41028ft 536kts
11-Apr-20 22:29 18.866230 166.754485 78 41018ft 537kts
11-Apr-20 22:29 18.888496 166.883767 78 41020ft 537kts
11-Apr-20 22:30 18.914990 167.038358 78 41021ft 537kts
11-Apr-20 22:32 18.945862 167.219504 78 41024ft 537kts
11-Apr-20 22:32 18.967740 167.348547 78 41025ft 537kts
11-Apr-20 22:33 18.993939 167.503820 78 41027ft 537kts
11-Apr-20 22:34 19.019994 167.659051 79 41026ft 537kts
11-Apr-20 22:35 19.045975 167.814630 79 41019ft 537kts
11-Apr-20 22:36 19.071762 167.969912 79 41020ft 537kts
11-Apr-20 22:37 19.097445 168.125400 79 41022ft 537kts
11-Apr-20 22:38 19.122951 168.280634 79 41024ft 537kts
11-Apr-20 22:39 19.148364 168.436156 79 41026ft 537kts
11-Apr-20 22:40 19.173586 168.591351 79 41028ft 537kts
11-Apr-20 22:41 19.198825 168.747528 79 41018ft 537kts
11-Apr-20 22:42 19.223850 168.903231 79 41020ft 538kts
11-Apr-20 22:43 19.248753 169.059031 79 41022ft 538kts
11-Apr-20 22:44 19.273455 169.214449 79 41024ft 538kts
11-Apr-20 22:45 19.298146 169.370674 79 41026ft 538kts
11-Apr-20 22:46 19.322677 169.526774 79 41028ft 538kts
11-Apr-20 22:47 19.347069 169.682852 79 41016ft 538kts
11-Apr-20 22:48 19.371265 169.838642 79 41019ft 538kts
11-Apr-20 22:49 19.395386 169.994808 79 41021ft 538kts
11-Apr-20 22:50 19.419323 170.150692 79 41023ft 538kts
11-Apr-20 22:51 19.443234 170.307328 79 41025ft 538kts
11-Apr-20 22:52 19.466948 170.463589 79 41027ft 538kts
11-Apr-20 22:53 19.490533 170.619937 79 41029ft 538kts
11-Apr-20 22:54 19.513946 170.776069 79 41018ft 538kts
11-Apr-20 22:55 19.537380 170.933298 79 41020ft 537kts
11-Apr-20 22:56 19.560487 171.089277 79 41022ft 537kts
11-Apr-20 22:57 19.583533 171.245800 79 41024ft 537kts
11-Apr-20 22:58 19.606442 171.402351 79 41026ft 537kts
11-Apr-20 22:59 19.629158 171.558551 79 41028ft 537kts
11-Apr-20 23:00 19.651563 171.713540 80 41017ft 537kts
11-Apr-20 23:01 19.674035 171.870022 79 41019ft 537kts
11-Apr-20 23:02 19.696344 172.026332 79 41021ft 537kts
11-Apr-20 23:03 19.718528 172.182754 79 41023ft 537kts
11-Apr-20 23:04 19.740565 172.339148 79 41025ft 537kts
11-Apr-20 23:05 19.762480 172.495683 79 41027ft 537kts
11-Apr-20 23:06 19.784274 172.652365 80 41028ft 536kts
11-Apr-20 23:07 19.805873 172.808642 80 41018ft 536kts
11-Apr-20 23:08 19.827379 172.965303 80 41020ft 536kts
11-Apr-20 23:09 19.848770 173.122159 80 41022ft 536kts
11-Apr-20 23:10 19.869939 173.278439 80 41024ft 536kts
11-Apr-20 23:11 19.890400 173.435736 80 41026ft 536kts
11-Apr-20 23:12 19.910460 173.592609 80 41027ft 536kts
11-Apr-20 23:13 19.930389 173.749564 80 41017ft 536kts
11-Apr-20 23:14 19.950246 173.907058 80 41019ft 536kts
11-Apr-20 23:15 19.969854 174.063744 80 41021ft 535kts
11-Apr-20 23:16 19.989271 174.220037 80 41022ft 535kts
11-Apr-20 23:17 20.008626 174.376985 80 41024ft 535kts
11-Apr-20 23:18 20.027769 174.533359 80 41026ft 535kts
11-Apr-20 23:19 20.046853 174.690367 81 41014ft 535kts
11-Apr-20 23:20 20.065675 174.846612 80 41017ft 535kts
11-Apr-20 23:21 20.084507 175.003796 80 41019ft 535kts
11-Apr-20 23:22 20.103118 175.160482 80 41024ft 535kts
11-Apr-20 23:23 20.121603 175.317288 80 41026ft 535kts
11-Apr-20 23:24 20.139975 175.474364 80 41028ft 535kts
11-Apr-20 23:25 20.158237 175.631734 80 41030ft 535kts
11-Apr-20 23:26 20.176323 175.788855 81 41019ft 536kts
11-Apr-20 23:27 20.194262 175.945919 81 41021ft 536kts
11-Apr-20 23:28 20.212117 176.103510 81 41023ft 536kts
11-Apr-20 23:29 20.229733 176.260258 81 41025ft 536kts
11-Apr-20 23:30 20.247273 176.417603 80 41027ft 536kts
11-Apr-20 23:31 20.264651 176.574789 80 41029ft 536kts
11-Apr-20 23:32 20.281980 176.732849 81 41206ft 537kts
11-Apr-20 23:33 20.299096 176.890315 81 41209ft 536kts
11-Apr-20 23:34 20.316061 177.047694 81 41211ft 536kts
11-Apr-20 23:35 20.332892 177.205169 81 41213ft 536kts
11-Apr-20 23:36 20.349600 177.362853 81 41215ft 536kts
11-Apr-20 23:37 20.366178 177.520678 81 41217ft 536kts
11-Apr-20 23:38 20.382572 177.678097 81 41207ft 536kts
11-Apr-20 23:39 20.398869 177.836061 81 41208ft 537kts
11-Apr-20 23:40 20.415029 177.994063 81 41210ft 537kts
11-Apr-20 23:41 20.431045 178.152080 81 41212ft 537kts
11-Apr-20 23:42 20.446952 178.310476 81 41214ft 537kts
11-Apr-20 23:43 20.462662 178.468357 81 41216ft 537kts
11-Apr-20 23:44 20.478269 178.626675 81 41218ft 537kts
11-Apr-20 23:45 20.493767 178.785374 81 41207ft 537kts
11-Apr-20 23:46 20.509113 178.944031 81 41209ft 537kts
11-Apr-20 23:47 20.524245 179.101985 81 41211ft 537kts
11-Apr-20 23:48 20.539268 179.260334 81 41213ft 537kts
11-Apr-20 23:49 20.554166 179.418907 81 41215ft 537kts
11-Apr-20 23:50 20.568950 179.577843 81 41217ft 537kts
11-Apr-20 23:51 20.583689 179.737887 82 41207ft 537kts
11-Apr-20 23:52 20.598277 179.897943 81 41208ft 537kts
11-Apr-20 23:53 20.612342 -179.942298 82 41210ft 537kts
11-Apr-20 23:54 20.625593 -179.783530 82 41212ft 537kts
11-Apr-20 23:55 20.638691 -179.624729 82 41214ft 537kts
11-Apr-20 23:56 20.651729 -179.464927 82 41202ft 538kts
11-Apr-20 23:57 20.664547 -179.305899 82 41205ft 538kts
11-Apr-20 23:58 20.677263 -179.146325 82 41207ft 538kts
11-Apr-20 23:59 20.689777 -178.987436 82 41209ft 538kts
12-Apr-20 00:00 20.702158 -178.828352 82 41211ft 538kts
12-Apr-20 00:01 20.714372 -178.669526 82 41213ft 538kts
12-Apr-20 00:02 20.726442 -178.510642 82 41215ft 538kts
12-Apr-20 00:03 20.738332 -178.352237 82 41204ft 538kts
12-Apr-20 00:04 20.750133 -178.193000 82 41206ft 538kts
12-Apr-20 00:05 20.761815 -178.033350 82 41208ft 538kts
12-Apr-20 00:06 20.773316 -177.874148 82 41210ft 538kts
12-Apr-20 00:07 20.784681 -177.714779 82 41212ft 539kts
12-Apr-20 00:08 20.795890 -177.555510 82 41214ft 539kts
12-Apr-20 00:09 20.806968 -177.395971 82 41216ft 539kts
12-Apr-20 00:10 20.817918 -177.236204 82 41205ft 539kts
12-Apr-20 00:11 20.828686 -177.076840 82 41207ft 539kts
12-Apr-20 00:12 20.839320 -176.917260 82 41209ft 539kts
12-Apr-20 00:13 20.849789 -176.757926 82 41211ft 539kts
12-Apr-20 00:14 20.860137 -176.598147 82 41213ft 539kts
12-Apr-20 00:15 20.870334 -176.438398 82 41215ft 539kts
12-Apr-20 00:16 20.880383 -176.278721 82 41204ft 539kts
12-Apr-20 00:17 20.890279 -176.118976 82 41206ft 539kts
12-Apr-20 00:18 20.900040 -175.959014 82 41208ft 539kts
12-Apr-20 00:19 20.909634 -175.799333 82 41210ft 539kts
12-Apr-20 00:20 20.919080 -175.639625 82 41212ft 540kts
12-Apr-20 00:21 20.928381 -175.479836 82 41214ft 540kts
12-Apr-20 00:22 20.937558 -175.319677 82 41202ft 540kts
12-Apr-20 00:23 20.946561 -175.159868 82 41204ft 540kts
12-Apr-20 00:24 20.955425 -174.999832 82 41206ft 540kts
12-Apr-20 00:25 20.964161 -174.839366 82 41208ft 540kts
12-Apr-20 00:26 20.972710 -174.679607 82 41210ft 540kts
12-Apr-20 00:27 20.981134 -174.519363 82 41213ft 540kts
12-Apr-20 00:28 20.989409 -174.359079 82 41215ft 540kts
12-Apr-20 00:29 20.997536 -174.198892 82 41203ft 540kts
12-Apr-20 00:30 21.005500 -174.038811 82 41205ft 540kts
12-Apr-20 00:31 21.013328 -173.878414 82 41207ft 540kts
12-Apr-20 00:32 21.021005 -173.718032 82 41209ft 540kts
12-Apr-20 00:33 21.028539 -173.557474 82 41211ft 540kts
12-Apr-20 00:34 21.035889 -173.397624 82 41213ft 540kts
12-Apr-20 00:35 21.043137 -173.236865 82 41201ft 541kts
12-Apr-20 00:36 21.050216 -173.076307 82 41203ft 541kts
12-Apr-20 00:37 21.057140 -172.915861 82 41205ft 541kts
12-Apr-20 00:38 21.063914 -172.755376 82 41208ft 541kts
12-Apr-20 00:39 21.070559 -172.594340 82 41210ft 541kts
12-Apr-20 00:40 21.077020 -172.434095 82 41212ft 541kts
12-Apr-20 00:41 21.083367 -172.273107 82 41200ft 541kts
12-Apr-20 00:42 21.089539 -172.112486 82 41202ft 541kts
12-Apr-20 00:43 21.095337 -171.951230 82 41204ft 542kts
12-Apr-20 00:44 21.100119 -171.792227 82 41207ft 541kts
12-Apr-20 00:45 21.104824 -171.630912 82 41220ft 541kts
12-Apr-20 00:46 21.109362 -171.470016 82 41222ft 541kts
12-Apr-20 00:47 21.113755 -171.309072 82 41208ft 542kts
12-Apr-20 00:48 21.117977 -171.148266 82 41212ft 542kts
12-Apr-20 00:49 21.122080 -170.986494 82 41215ft 542kts
12-Apr-20 00:50 21.126017 -170.825250 82 41217ft 542kts
12-Apr-20 00:51 21.129795 -170.664314 82 41219ft 542kts
12-Apr-20 00:53 21.133427 -170.503070 82 41222ft 542kts
12-Apr-20 00:54 21.136905 -170.341928 82 41221ft 542kts
12-Apr-20 00:55 21.140219 -170.181084 82 41205ft 543kts
12-Apr-20 00:56 21.143396 -170.019724 82 41107ft 542kts
12-Apr-20 00:57 21.146417 -169.858513 82 41109ft 542kts
12-Apr-20 00:58 21.149290 -169.696996 82 41111ft 542kts
12-Apr-20 00:59 21.152009 -169.535567 82 41113ft 542kts
12-Apr-20 01:00 21.154572 -169.374291 82 41116ft 542kts
12-Apr-20 01:01 21.156981 -169.212895 82 41103ft 543kts
12-Apr-20 01:02 21.159240 -169.051368 82 41106ft 543kts
12-Apr-20 01:03 21.161353 -168.889800 83 41135ft 543kts
12-Apr-20 01:04 21.163301 -168.728287 82 41137ft 543kts
12-Apr-20 01:05 21.165098 -168.567031 82 41140ft 543kts
12-Apr-20 01:06 21.166747 -168.405311 82 41142ft 543kts
12-Apr-20 01:07 21.168228 -168.244986 83 41130ft 544kts
12-Apr-20 01:08 21.169573 -168.082834 83 41132ft 544kts
12-Apr-20 01:09 21.170758 -167.921559 83 41135ft 544kts
12-Apr-20 01:10 21.171794 -167.759841 82 41137ft 544kts
12-Apr-20 01:11 21.172677 -167.597849 82 41140ft 544kts
12-Apr-20 01:12 21.173403 -167.436575 82 41142ft 544kts
12-Apr-20 01:13 21.173979 -167.274448 83 41130ft 544kts
12-Apr-20 01:14 21.174395 -167.112849 83 41132ft 544kts
12-Apr-20 01:14 21.174628 -166.977612 83 41134ft 544kts
12-Apr-20 01:16 21.174774 -166.789143 83 41137ft 544kts
12-Apr-20 01:16 21.174751 -166.653893 82 41139ft 544kts
12-Apr-20 01:18 21.174538 -166.465493 82 41142ft 544kts
12-Apr-20 01:18 21.174260 -166.330150 83 41134ft 544kts
12-Apr-20 01:19 21.173775 -166.168254 83 41132ft 544kts
12-Apr-20 01:20 21.173142 -166.006156 83 41134ft 544kts
12-Apr-20 01:21 21.172355 -165.844166 83 41136ft 544kts
12-Apr-20 01:22 21.171415 -165.682322 82 41139ft 544kts
12-Apr-20 01:23 21.170317 -165.519969 82 41141ft 544kts
12-Apr-20 01:24 21.169066 -165.357812 82 41144ft 544kts
12-Apr-20 01:25 21.167658 -165.195726 83 41132ft 544kts
12-Apr-20 01:26 21.166095 -165.033505 83 41134ft 544kts
12-Apr-20 01:27 21.164388 -164.871699 83 41136ft 544kts
12-Apr-20 01:28 21.162520 -164.709627 83 41139ft 545kts
12-Apr-20 01:29 21.160497 -164.547518 83 41141ft 545kts
12-Apr-20 01:30 21.158321 -164.385457 83 41144ft 545kts
12-Apr-20 01:31 21.155987 -164.223431 83 41131ft 545kts
12-Apr-20 01:32 21.153498 -164.061242 83 41134ft 545kts
12-Apr-20 01:33 21.151322 -163.898924 80 41135ft 542kts
12-Apr-20 01:34 21.157263 -163.738107 79 41139ft 541kts
12-Apr-20 01:35 21.162711 -163.577678 79 41141ft 541kts
12-Apr-20 01:36 21.168018 -163.416756 79 41143ft 541kts
12-Apr-20 01:37 21.173185 -163.255333 80 41131ft 542kts
12-Apr-20 01:38 21.178191 -163.094140 80 41133ft 542kts
12-Apr-20 01:39 21.183040 -162.933165 80 41135ft 542kts
12-Apr-20 01:40 21.187739 -162.772121 80 41138ft 542kts
12-Apr-20 01:41 21.192237 -162.612781 80 41140ft 542kts
12-Apr-20 01:42 21.196699 -162.449227 80 41142ft 542kts
12-Apr-20 01:43 21.200949 -162.287831 80 41129ft 542kts
12-Apr-20 01:44 21.204988 -162.128425 80 41132ft 543kts
12-Apr-20 01:45 21.208973 -161.965261 80 41134ft 543kts
12-Apr-20 01:46 21.212767 -161.803602 80 41137ft 543kts
12-Apr-20 01:47 21.216400 -161.642274 80 41139ft 543kts
12-Apr-20 01:48 21.219816 -161.483946 80 41142ft 543kts
12-Apr-20 01:49 21.223229 -161.318695 81 41128ft 543kts
12-Apr-20 01:50 21.226364 -161.158766 81 41131ft 543kts
12-Apr-20 01:51 21.229964 -160.995479 75 41129ft 536kts
12-Apr-20 01:52 21.249015 -160.837384 75 41136ft 537kts
12-Apr-20 01:53 21.264470 -160.678114 75 41138ft 537kts
12-Apr-20 01:54 21.279688 -160.518589 75 41140ft 537kts
12-Apr-20 01:55 21.294782 -160.358832 75 40145ft 541kts
12-Apr-20 01:56 21.309694 -160.199650 76 37689ft 533kts
12-Apr-20 01:57 21.324303 -160.042098 77 35270ft 531kts
12-Apr-20 01:58 21.338530 -159.886078 79 32866ft 521kts
12-Apr-20 01:59 21.352321 -159.733699 80 30520ft 507kts
12-Apr-20 02:00 21.365627 -159.585204 80 28228ft 492kts
12-Apr-20 02:01 21.378650 -159.438546 81 25966ft 477kts
12-Apr-20 02:02 21.391078 -159.297297 82 23771ft 462kts
12-Apr-20 02:03 21.403029 -159.160031 82 21625ft 446kts
12-Apr-20 02:04 21.414468 -159.027389 83 19562ft 430kts
12-Apr-20 02:05 21.425221 -158.901655 83 17591ft 416kts
12-Apr-20 02:06 21.435574 -158.779519 83 15633ft 404kts
12-Apr-20 02:07 21.444144 -158.677615 83 14013ft 394kts
12-Apr-20 02:08 21.455633 -158.539808 84 11792ft 381kts
12-Apr-20 02:09 21.449405 -158.428510 117 9961ft 330kts
12-Apr-20 02:10 21.404981 -158.348038 122 8465ft 288kts
12-Apr-20 02:11 21.363526 -158.275269 122 7140ft 286kts
12-Apr-20 02:12 21.322496 -158.204004 120 5768ft 255kts
12-Apr-20 02:13 21.279403 -158.157317 158 4673ft 207kts
12-Apr-20 02:14 21.231763 -158.132612 130 3765ft 187kts
12-Apr-20 02:15 21.232122 -158.076044 81 2639ft 189kts
12-Apr-20 02:16 21.244695 -158.025964 53 1828ft 146kts
12-Apr-20 02:17 21.266060 -157.994797 51 1470ft 137kts
12-Apr-20 02:18 21.290394 -157.960640 51 809ft 137kts
12-Apr-20 02:19 21.312742 -157.928808 51 96ft 136kts
12-Apr-20 02:20 21.324029 -157.913721 24 30ft 29kts
12-Apr-20 02:21 21.327748 -157.914081 270 30ft 14kts
12-Apr-20 02:22 21.327737 -157.919675 269 30ft 22kts
12-Apr-20 02:23 21.329690 -157.921501 9 30ft 13kts
12-Apr-20 02:24 21.331362 -157.921219 9 30ft 0kts
12-Apr-20 02:25 21.331362 -157.921219 9 30ft 0kts

Navigation Log

Ident Type
Flight plan parsing failed, navigation log unavailable